Time;durP1;ratioP1;P1;durP2;ratioP2;P2;SDS_P1;SDS_P2;PMS_P1;PMS_P2;Temp;Humidity;BMP_temperature;BMP_pressure;BME280_temperature;BME280_humidity;BME280_pressure;Samples;Min_cycle;Max_cycle;Signal;HPM_P1;HPM_P2
2024/02/24 00:01:56;;;;;;;4.55;2.42;;;4.90;99.90;;;;;;5054987;28;20074;-42
2024/02/24 00:04:22;;;;;;;2.75;1.85;;;5.00;99.90;;;;;;5058898;28;20025;-41
2024/02/24 00:06:48;;;;;;;5.50;2.10;;;4.90;99.90;;;;;;5044471;28;20505;-40
2024/02/24 00:09:13;;;;;;;13.85;2.83;;;4.90;99.90;;;;;;5038766;28;20104;-43
2024/02/24 00:11:39;;;;;;;4.45;2.38;;;4.90;99.90;;;;;;5038714;28;20037;-41
2024/02/24 00:14:05;;;;;;;4.03;1.77;;;4.90;99.90;;;;;;5044072;28;20390;-40
2024/02/24 00:16:31;;;;;;;4.03;1.98;;;4.90;99.90;;;;;;5042233;28;20037;-46
2024/02/24 00:18:59;;;;;;;5.43;1.90;;;4.90;99.90;;;;;;5038694;28;20033;-47
2024/02/24 00:21:25;;;;;;;2.63;1.70;;;4.90;99.90;;;;;;5038629;28;20032;-40
2024/02/24 00:23:51;;;;;;;2.08;1.58;;;5.00;99.90;;;;;;5054247;28;20167;-43
2024/02/24 00:26:16;;;;;;;1.90;1.20;;;4.90;99.90;;;;;;5058584;28;20095;-41
2024/02/24 00:28:42;;;;;;;4.32;1.30;;;4.90;99.90;;;;;;5056982;28;20539;-40
2024/02/24 00:31:08;;;;;;;1.27;0.95;;;4.90;99.90;;;;;;5057154;28;20032;-41
2024/02/24 00:33:33;;;;;;;1.33;1.17;;;5.00;99.90;;;;;;5056849;28;20347;-40
2024/02/24 00:36:00;;;;;;;3.42;1.15;;;5.00;99.90;;;;;;5054398;28;20574;-41
2024/02/24 00:38:26;;;;;;;1.85;1.08;;;5.00;99.90;;;;;;5055526;28;20420;-42
2024/02/24 00:40:51;;;;;;;1.48;1.17;;;5.00;99.90;;;;;;5042402;28;20037;-40
2024/02/24 00:43:17;;;;;;;1.27;1.15;;;5.00;99.90;;;;;;5035450;28;20393;-47
2024/02/24 00:45:43;;;;;;;2.28;0.70;;;5.00;99.90;;;;;;5040347;28;20516;-38
2024/02/24 00:48:08;;;;;;;5.05;1.23;;;4.90;99.90;;;;;;5035653;28;20355;-39
2024/02/24 00:50:34;;;;;;;1.23;0.95;;;5.00;99.90;;;;;;5042515;28;20537;-43
2024/02/24 00:52:59;;;;;;;2.17;1.02;;;5.00;99.90;;;;;;5055181;28;20096;-41
2024/02/24 00:55:25;;;;;;;1.15;0.75;;;5.00;99.90;;;;;;5045765;28;20065;-43
2024/02/24 00:57:51;;;;;;;1.05;0.98;;;4.90;99.90;;;;;;5035409;28;20099;-39
2024/02/24 01:00:17;;;;;;;1.17;0.70;;;5.00;99.90;;;;;;5048294;28;20070;-39
2024/02/24 01:02:43;;;;;;;5.45;0.90;;;4.90;99.90;;;;;;5055092;28;20056;-40
2024/02/24 01:05:09;;;;;;;1.70;1.10;;;4.90;99.90;;;;;;5046594;28;20492;-43
2024/02/24 01:07:35;;;;;;;0.55;0.52;;;4.90;99.90;;;;;;5034992;28;20060;-38
2024/02/24 01:10:01;;;;;;;2.13;0.90;;;4.90;99.90;;;;;;5043634;28;20028;-44
2024/02/24 01:12:27;;;;;;;3.53;1.35;;;4.90;99.90;;;;;;5053083;28;20036;-39
2024/02/24 01:14:53;;;;;;;7.97;1.58;;;4.90;99.90;;;;;;5053329;28;20362;-41
2024/02/24 01:17:19;;;;;;;7.57;1.75;;;4.90;99.90;;;;;;5052998;28;20071;-41
2024/02/24 01:19:45;;;;;;;1.98;1.20;;;4.80;99.90;;;;;;5054797;28;20035;-46
2024/02/24 01:22:13;;;;;;;2.13;0.68;;;4.90;99.90;;;;;;5052880;28;20393;-47
2024/02/24 01:24:39;;;;;;;2.70;1.45;;;4.80;99.90;;;;;;5054679;28;20486;-49
2024/02/24 01:27:05;;;;;;;1.77;1.40;;;4.90;99.90;;;;;;5054406;28;20086;-49
2024/02/24 01:29:31;;;;;;;4.55;0.95;;;4.90;99.90;;;;;;5052801;28;20029;-51
2024/02/24 01:32:00;;;;;;;3.47;1.13;;;4.90;99.90;;;;;;5053195;28;20075;-50
2024/02/24 01:34:29;;;;;;;4.43;2.20;;;4.80;99.90;;;;;;5054369;28;20033;-51
2024/02/24 01:36:55;;;;;;;3.75;0.90;;;4.80;99.90;;;;;;5042502;28;20517;-48
2024/02/24 01:39:20;;;;;;;2.35;1.02;;;4.80;99.90;;;;;;5034523;28;20029;-53
2024/02/24 01:41:46;;;;;;;1.73;1.08;;;4.80;99.90;;;;;;5034292;28;20371;-53
2024/02/24 01:44:18;;;;;;;3.45;1.15;;;4.80;99.90;;;;;;5037016;28;20443;-48
2024/02/24 01:46:45;;;;;;;1.45;1.13;;;4.90;99.90;;;;;;5034610;28;20513;-49
2024/02/24 01:49:11;;;;;;;7.97;1.45;;;4.80;99.90;;;;;;5034101;28;20029;-52
2024/02/24 01:51:36;;;;;;;2.00;0.93;;;4.80;99.90;;;;;;5034144;28;20033;-52
2024/02/24 01:54:03;;;;;;;1.27;0.98;;;4.80;99.90;;;;;;5034053;28;20033;-46
2024/02/24 01:56:29;;;;;;;2.90;1.35;;;4.80;99.90;;;;;;5034035;28;20038;-52
2024/02/24 01:58:55;;;;;;;2.88;0.88;;;4.80;99.90;;;;;;5033997;28;20044;-51
2024/02/24 02:01:20;;;;;;;1.83;1.00;;;4.80;99.90;;;;;;5034605;28;20029;-52
2024/02/24 02:03:46;;;;;;;3.15;1.02;;;4.70;99.90;;;;;;5031924;28;20029;-52
2024/02/24 02:06:12;;;;;;;3.10;1.13;;;4.80;99.90;;;;;;5043882;28;20025;-51
2024/02/24 02:08:38;;;;;;;1.20;0.80;;;4.80;99.90;;;;;;5053816;28;20501;-52
2024/02/24 02:11:04;;;;;;;2.55;0.90;;;4.80;99.90;;;;;;5053652;28;20061;-50
2024/02/24 02:13:29;;;;;;;1.88;0.90;;;4.80;99.90;;;;;;5046989;28;20068;-54
2024/02/24 02:15:56;;;;;;;1.13;0.93;;;4.70;99.90;;;;;;5042660;28;20041;-50
2024/02/24 02:18:22;;;;;;;1.10;1.00;;;4.70;99.90;;;;;;5053257;28;20036;-50
2024/02/24 02:20:51;;;;;;;2.08;1.00;;;4.80;99.90;;;;;;5053667;28;20029;-49
2024/02/24 02:23:17;;;;;;;1.75;0.80;;;4.70;99.90;;;;;;5051715;28;20033;-47
2024/02/24 02:25:43;;;;;;;1.63;0.80;;;4.80;99.90;;;;;;5053227;28;20049;-39
2024/02/24 02:28:09;;;;;;;1.65;1.15;;;4.80;99.90;;;;;;5052067;28;20397;-35
2024/02/24 02:30:34;;;;;;;4.90;1.23;;;4.80;99.90;;;;;;5051936;28;20024;-35
2024/02/24 02:33:01;;;;;;;1.75;1.08;;;4.80;99.90;;;;;;5053558;28;20087;-37
2024/02/24 02:35:27;;;;;;;8.50;1.67;;;4.80;99.90;;;;;;5050017;28;20028;-36
2024/02/24 02:37:52;;;;;;;2.80;1.08;;;4.90;99.90;;;;;;5043482;28;20036;-50
2024/02/24 02:40:18;;;;;;;2.03;1.38;;;4.80;99.90;;;;;;5053343;28;20021;-50
2024/02/24 02:42:45;;;;;;;8.20;1.40;;;4.90;99.90;;;;;;5053139;28;20029;-51
2024/02/24 02:45:10;;;;;;;5.00;1.30;;;4.90;99.90;;;;;;5041584;28;20523;-50
2024/02/24 02:47:39;;;;;;;2.97;1.30;;;4.90;99.90;;;;;;5033354;28;20018;-48
2024/02/24 02:50:07;;;;;;;1.95;1.05;;;4.80;99.90;;;;;;5032983;28;20049;-47
2024/02/24 02:52:32;;;;;;;1.35;0.80;;;4.90;99.90;;;;;;5033118;28;20394;-49
2024/02/24 02:54:58;;;;;;;3.95;0.85;;;4.90;99.90;;;;;;5032919;28;20026;-44
2024/02/24 02:57:24;;;;;;;2.38;1.20;;;4.80;99.90;;;;;;5033056;28;20035;-50
2024/02/24 02:59:50;;;;;;;2.00;1.50;;;4.80;99.90;;;;;;5032443;28;20029;-37
2024/02/24 03:02:15;;;;;;;3.75;1.20;;;4.80;99.90;;;;;;5033626;28;20055;-36
2024/02/24 03:04:41;;;;;;;2.88;1.55;;;4.90;99.90;;;;;;5032860;28;20030;-39
2024/02/24 03:07:07;;;;;;;2.53;1.25;;;4.80;99.90;;;;;;5033021;28;20430;-36
2024/02/24 03:09:32;;;;;;;1.67;1.30;;;4.80;99.90;;;;;;5032808;28;20028;-39
2024/02/24 03:11:58;;;;;;;2.88;1.30;;;4.80;99.90;;;;;;5048895;28;20025;-36
2024/02/24 03:14:24;;;;;;;1.20;1.10;;;4.70;99.90;;;;;;5052654;28;20067;-36
2024/02/24 03:16:50;;;;;;;1.63;1.52;;;4.70;99.90;;;;;;5045755;28;20029;-36
2024/02/24 03:19:16;;;;;;;2.75;1.50;;;4.70;99.90;;;;;;5032957;28;20029;-36
2024/02/24 03:21:41;;;;;;;5.50;1.40;;;4.70;99.90;;;;;;5036346;28;20473;-36
2024/02/24 03:24:07;;;;;;;3.88;1.88;;;4.80;99.90;;;;;;5042851;28;20032;-37
2024/02/24 03:26:33;;;;;;;2.20;1.70;;;4.80;99.90;;;;;;5032541;28;20509;-38
2024/02/24 03:28:59;;;;;;;6.22;1.20;;;4.80;99.90;;;;;;5032620;28;20377;-37
2024/02/24 03:31:25;;;;;;;4.30;1.30;;;4.80;99.90;;;;;;5043681;28;20028;-36
2024/02/24 03:33:53;;;;;;;4.53;1.40;;;4.80;99.90;;;;;;5050781;28;20029;-36
2024/02/24 03:36:19;;;;;;;2.00;1.73;;;4.90;99.90;;;;;;5052451;28;20550;-36
2024/02/24 03:38:45;;;;;;;3.22;1.50;;;4.80;99.90;;;;;;5047523;28;20385;-36
2024/02/24 03:41:11;;;;;;;3.05;1.35;;;4.80;99.90;;;;;;5052333;28;20040;-37
2024/02/24 03:43:38;;;;;;;2.97;1.58;;;4.80;99.90;;;;;;5036207;28;20352;-37
2024/02/24 03:46:04;;;;;;;7.47;1.80;;;4.80;99.90;;;;;;5031386;28;20017;-36
2024/02/24 03:48:31;;;;;;;1.95;1.55;;;4.80;99.90;;;;;;5032393;28;20052;-37
2024/02/24 03:50:57;;;;;;;4.93;1.70;;;4.80;99.90;;;;;;5032439;28;20059;-39
2024/02/24 03:53:23;;;;;;;4.38;1.63;;;4.80;99.90;;;;;;5045111;28;20037;-36
2024/02/24 03:55:52;;;;;;;3.00;1.40;;;4.80;99.90;;;;;;5052835;28;20029;-36
2024/02/24 03:58:18;;;;;;;1.35;1.25;;;4.70;99.90;;;;;;5052264;28;20111;-37
2024/02/24 04:00:44;;;;;;;2.03;1.55;;;4.70;99.90;;;;;;5045154;28;20029;-36
2024/02/24 04:03:10;;;;;;;2.80;1.60;;;4.70;99.90;;;;;;5033988;28;20072;-38
2024/02/24 04:05:35;;;;;;;1.73;1.40;;;4.70;99.90;;;;;;5032304;28;20024;-38
2024/02/24 04:08:01;;;;;;;2.85;1.55;;;4.70;99.90;;;;;;5032303;28;20474;-36
2024/02/24 04:10:26;;;;;;;3.88;1.50;;;4.70;99.90;;;;;;5032304;28;20026;-35
2024/02/24 04:12:52;;;;;;;3.67;1.30;;;4.60;99.90;;;;;;5049518;28;20098;-36
2024/02/24 04:15:22;;;;;;;3.47;1.55;;;4.60;99.90;;;;;;5054462;28;20028;-36
2024/02/24 04:17:48;;;;;;;3.10;1.70;;;4.60;99.90;;;;;;5047469;28;20549;-36
2024/02/24 04:20:15;;;;;;;1.83;1.50;;;4.70;99.90;;;;;;5053570;28;20481;-35
2024/02/24 04:22:41;;;;;;;1.60;1.50;;;4.70;99.90;;;;;;5035740;28;20036;-36
2024/02/24 04:25:07;;;;;;;5.82;1.52;;;4.60;99.90;;;;;;5035643;28;20021;-36
2024/02/24 04:27:33;;;;;;;3.50;1.90;;;4.60;99.90;;;;;;5047975;28;20028;-36
2024/02/24 04:29:59;;;;;;;4.00;1.95;;;4.60;99.90;;;;;;5035586;28;20330;-36
2024/02/24 04:32:25;;;;;;;3.22;1.77;;;4.60;99.90;;;;;;5035646;28;20108;-38
2024/02/24 04:34:50;;;;;;;4.63;1.35;;;4.60;99.90;;;;;;5035637;28;20474;-36
2024/02/24 04:37:16;;;;;;;2.97;1.42;;;4.60;99.90;;;;;;5035419;28;20100;-36
2024/02/24 04:39:42;;;;;;;1.70;1.55;;;4.60;99.90;;;;;;5035541;28;20025;-37
2024/02/24 04:42:07;;;;;;;2.50;1.73;;;4.60;99.90;;;;;;5035382;28;20045;-36
2024/02/24 04:44:33;;;;;;;3.38;2.05;;;4.60;99.90;;;;;;5035589;28;20017;-36
2024/02/24 04:46:59;;;;;;;1.63;1.52;;;4.70;99.90;;;;;;5049171;28;20032;-37
2024/02/24 04:49:24;;;;;;;7.75;1.92;;;4.70;99.90;;;;;;5048181;28;20079;-36
2024/02/24 04:51:50;;;;;;;3.30;2.03;;;4.70;99.90;;;;;;5035548;28;20485;-36
2024/02/24 04:54:16;;;;;;;2.67;1.60;;;4.70;99.90;;;;;;5035287;28;20033;-36
2024/02/24 04:56:42;;;;;;;8.88;1.98;;;4.70;99.90;;;;;;5046497;28;20029;-37
2024/02/24 04:59:07;;;;;;;2.25;2.05;;;4.70;99.90;;;;;;5043856;28;20394;-35
2024/02/24 05:01:33;;;;;;;3.55;2.17;;;4.80;99.90;;;;;;5048693;28;20367;-50
2024/02/24 05:03:59;;;;;;;4.07;2.28;;;4.80;99.90;;;;;;5035161;28;20489;-51
2024/02/24 05:06:24;;;;;;;3.95;2.17;;;4.90;99.90;;;;;;5034743;28;20080;-51
2024/02/24 05:08:50;;;;;;;3.75;1.85;;;4.80;99.90;;;;;;5034673;28;20033;-52
2024/02/24 05:11:15;;;;;;;3.92;2.00;;;4.90;99.90;;;;;;5034940;28;20028;-52
2024/02/24 05:13:41;;;;;;;6.03;2.03;;;4.90;99.90;;;;;;5033529;28;20026;-57
2024/02/24 05:16:07;;;;;;;2.67;2.40;;;4.80;99.90;;;;;;5047422;28;20416;-56
2024/02/24 05:18:33;;;;;;;4.47;2.30;;;4.80;99.90;;;;;;5035344;28;20030;-49
2024/02/24 05:20:59;;;;;;;2.95;2.13;;;4.80;99.90;;;;;;5035895;28;20036;-37
2024/02/24 05:23:26;;;;;;;11.90;5.93;;;4.80;99.90;;;;;;5054136;28;20021;-36
2024/02/24 05:25:51;;;;;;;7.88;3.28;;;4.80;99.90;;;;;;5053066;28;20106;-38
2024/02/24 05:28:18;;;;;;;4.53;2.85;;;4.90;99.90;;;;;;5053477;28;20519;-52
2024/02/24 05:30:44;;;;;;;4.93;3.40;;;4.80;99.90;;;;;;5045391;28;20036;-51
2024/02/24 05:33:09;;;;;;;6.75;2.75;;;4.90;99.90;;;;;;5034755;28;20399;-50
2024/02/24 05:35:36;;;;;;;3.53;2.70;;;4.90;99.90;;;;;;5049618;28;20056;-53
2024/02/24 05:38:01;;;;;;;4.90;3.38;;;4.90;99.90;;;;;;5054377;28;20112;-52
2024/02/24 05:40:27;;;;;;;10.48;2.63;;;4.90;99.90;;;;;;5053933;28;20490;-52
2024/02/24 05:42:53;;;;;;;4.25;2.88;;;4.90;99.90;;;;;;5053006;28;20021;-52
2024/02/24 05:45:18;;;;;;;7.38;3.28;;;4.90;99.90;;;;;;5040488;28;20116;-47
2024/02/24 05:47:44;;;;;;;5.43;3.08;;;4.90;99.90;;;;;;5034466;28;20026;-53
2024/02/24 05:50:10;;;;;;;5.85;3.17;;;4.90;99.90;;;;;;5034074;28;20520;-52
2024/02/24 05:52:36;;;;;;;8.23;3.63;;;4.90;99.90;;;;;;5034060;28;20025;-52
2024/02/24 05:55:07;;;;;;;6.50;3.35;;;4.90;99.90;;;;;;5034414;28;20021;-36
2024/02/24 05:57:33;;;;;;;5.07;3.13;;;4.90;99.90;;;;;;5034045;28;20033;-38
2024/02/24 05:59:59;;;;;;;4.47;3.65;;;4.90;99.90;;;;;;5036702;28;20018;-40
2024/02/24 06:02:25;;;;;;;5.43;3.10;;;4.90;99.90;;;;;;5038539;28;20028;-38
2024/02/24 06:04:50;;;;;;;7.63;3.88;;;4.90;99.90;;;;;;5053733;28;20385;-37
2024/02/24 06:07:16;;;;;;;7.75;3.83;;;5.00;99.90;;;;;;5051486;28;20426;-37
2024/02/24 06:09:42;;;;;;;6.70;3.38;;;5.00;99.90;;;;;;5033872;28;20017;-53
2024/02/24 06:12:08;;;;;;;7.38;3.20;;;5.00;99.90;;;;;;5033686;28;20148;-36
2024/02/24 06:14:34;;;;;;;7.13;3.42;;;5.00;99.90;;;;;;5033878;28;20504;-36
2024/02/24 06:17:00;;;;;;;6.03;4.05;;;5.10;99.90;;;;;;5040018;28;20017;-37
2024/02/24 06:19:25;;;;;;;6.95;3.78;;;5.00;99.90;;;;;;5052459;28;20033;-37
2024/02/24 06:21:51;;;;;;;8.32;3.60;;;5.00;99.90;;;;;;5033685;28;20033;-38
2024/02/24 06:24:17;;;;;;;7.10;3.65;;;5.00;99.90;;;;;;5036538;28;20566;-38
2024/02/24 06:26:42;;;;;;;8.57;3.75;;;5.00;99.90;;;;;;5033424;28;20382;-40
2024/02/24 06:29:08;;;;;;;7.05;3.47;;;4.90;99.90;;;;;;5033468;28;20390;-39
2024/02/24 06:31:34;;;;;;;7.95;3.53;;;4.90;99.90;;;;;;5033349;28;20048;-38
2024/02/24 06:33:59;;;;;;;10.05;4.15;;;4.90;99.90;;;;;;5034279;28;20029;-53
2024/02/24 06:36:25;;;;;;;6.78;4.20;;;4.90;99.90;;;;;;5051960;28;20029;-52
2024/02/24 06:38:51;;;;;;;9.65;4.22;;;4.90;99.90;;;;;;5034378;28;20037;-54
2024/02/24 06:41:23;;;;;;;6.68;4.28;;;4.90;99.90;;;;;;5033224;28;20037;-39
2024/02/24 06:43:48;;;;;;;8.20;3.88;;;4.90;99.90;;;;;;5035971;28;20021;-41
2024/02/24 06:46:14;;;;;;;8.57;3.58;;;4.90;99.90;;;;;;5053066;28;20040;-38
2024/02/24 06:48:40;;;;;;;14.63;5.32;;;5.00;99.90;;;;;;5052827;28;20057;-37
2024/02/24 06:51:05;;;;;;;11.73;4.70;;;5.00;99.90;;;;;;5033279;28;20478;-38
2024/02/24 06:53:31;;;;;;;10.18;4.97;;;5.00;99.90;;;;;;5032934;28;20045;-37
2024/02/24 06:55:56;;;;;;;8.07;4.38;;;5.10;99.90;;;;;;5033051;28;20029;-37
2024/02/24 06:58:22;;;;;;;8.43;5.00;;;5.20;99.90;;;;;;5032807;28;20390;-36
2024/02/24 07:00:48;;;;;;;12.35;4.20;;;5.20;99.90;;;;;;5032914;28;20474;-36
2024/02/24 07:03:14;;;;;;;8.13;4.60;;;5.30;99.90;;;;;;5033007;28;20037;-38
2024/02/24 07:05:41;;;;;;;7.82;4.25;;;5.30;99.90;;;;;;5032697;28;20029;-37
2024/02/24 07:08:07;;;;;;;13.13;4.47;;;5.40;99.90;;;;;;5032908;28;20470;-52
2024/02/24 07:10:33;;;;;;;11.32;4.90;;;5.40;99.90;;;;;;5032802;28;20124;-53
2024/02/24 07:12:58;;;;;;;8.65;4.50;;;5.50;99.90;;;;;;5032603;28;20437;-51
2024/02/24 07:15:25;;;;;;;9.77;4.60;;;5.50;99.90;;;;;;5037654;28;20076;-53
2024/02/24 07:17:51;;;;;;;9.63;4.70;;;5.60;99.90;;;;;;5038966;28;20117;-52
2024/02/24 07:20:17;;;;;;;7.22;4.50;;;5.60;99.90;;;;;;5032710;28;20124;-52
2024/02/24 07:22:42;;;;;;;11.02;5.03;;;5.60;99.90;;;;;;5032934;28;20029;-55
2024/02/24 07:25:08;;;;;;;7.55;4.57;;;5.60;99.90;;;;;;5031063;28;20041;-53
2024/02/24 07:27:34;;;;;;;6.78;4.05;;;5.60;99.90;;;;;;5032647;28;20021;-57
2024/02/24 07:30:00;;;;;;;8.43;4.78;;;5.70;99.90;;;;;;5033017;28;20033;-51
2024/02/24 07:32:26;;;;;;;6.93;4.78;;;5.70;99.90;;;;;;5032433;28;20033;-52
2024/02/24 07:34:51;;;;;;;10.65;4.95;;;5.70;99.90;;;;;;5032596;28;20026;-51
2024/02/24 07:37:17;;;;;;;7.10;4.43;;;5.70;99.90;;;;;;5032572;28;20032;-52
2024/02/24 07:39:43;;;;;;;8.65;4.63;;;5.70;99.90;;;;;;5047127;28;20029;-52
2024/02/24 07:42:09;;;;;;;9.30;4.82;;;5.80;99.90;;;;;;5052664;28;20079;-36
2024/02/24 07:44:37;;;;;;;8.27;4.45;;;5.80;99.90;;;;;;5040870;28;20478;-39
2024/02/24 07:47:03;;;;;;;9.73;4.53;;;5.80;99.90;;;;;;5036206;28;20037;-54
2024/02/24 07:49:29;;;;;;;6.18;3.97;;;5.80;99.90;;;;;;5036252;28;20474;-37
2024/02/24 07:51:54;;;;;;;11.00;4.53;;;5.90;99.90;;;;;;5036416;28;20140;-52
2024/02/24 07:54:20;;;;;;;7.60;4.03;;;5.90;99.90;;;;;;5036591;28;20112;-52
2024/02/24 07:56:45;;;;;;;9.88;4.10;;;5.90;99.90;;;;;;5036298;28;20033;-51
2024/02/24 07:59:11;;;;;;;7.05;4.57;;;5.90;99.90;;;;;;5036246;28;20487;-50
2024/02/24 08:01:37;;;;;;;10.15;4.30;;;5.90;99.90;;;;;;5036213;28;20030;-53
2024/02/24 08:04:03;;;;;;;11.45;5.25;;;5.90;99.90;;;;;;5036412;28;20389;-51
2024/02/24 08:06:29;;;;;;;8.40;4.75;;;5.80;99.90;;;;;;5036424;28;20374;-55
2024/02/24 08:08:55;;;;;;;15.50;4.72;;;5.90;99.90;;;;;;5036564;28;20025;-53
2024/02/24 08:11:20;;;;;;;10.27;4.43;;;5.90;99.90;;;;;;5056024;28;20397;-50
2024/02/24 08:13:46;;;;;;;9.43;5.28;;;5.90;99.90;;;;;;5046292;28;20489;-51
2024/02/24 08:16:12;;;;;;;8.30;4.53;;;6.00;99.90;;;;;;5036264;28;20104;-53
2024/02/24 08:18:38;;;;;;;10.43;4.75;;;6.00;99.90;;;;;;5035807;28;20154;-52
2024/02/24 08:21:08;;;;;;;8.38;5.13;;;6.00;99.90;;;;;;5035821;28;20083;-52
2024/02/24 08:23:34;;;;;;;8.95;4.53;;;6.00;99.90;;;;;;5044887;28;20029;-52
2024/02/24 08:26:00;;;;;;;11.63;4.93;;;6.00;99.90;;;;;;5055546;28;20045;-52
2024/02/24 08:28:26;;;;;;;9.15;5.43;;;6.10;99.90;;;;;;5044476;28;20482;-53
2024/02/24 08:30:52;;;;;;;7.82;4.20;;;6.10;99.90;;;;;;5035587;28;20498;-53
2024/02/24 08:33:22;;;;;;;7.65;5.00;;;6.10;99.90;;;;;;5035654;28;20083;-53
2024/02/24 08:35:52;;;;;;;11.07;5.05;;;6.10;99.90;;;;;;5035647;28;20061;-52
2024/02/24 08:38:18;;;;;;;7.82;4.20;;;6.20;99.90;;;;;;5036150;28;20025;-53
2024/02/24 08:40:44;;;;;;;11.77;5.40;;;6.30;99.90;;;;;;5034481;28;20026;-52
2024/02/24 08:43:10;;;;;;;9.32;5.03;;;6.30;99.90;;;;;;5035433;28;20174;-54
2024/02/24 08:45:35;;;;;;;8.10;4.70;;;6.20;99.90;;;;;;5035431;28;20033;-54
2024/02/24 08:48:01;;;;;;;9.00;5.63;;;6.30;99.90;;;;;;5033999;28;20021;-38
2024/02/24 08:50:26;;;;;;;8.63;4.47;;;6.40;99.90;;;;;;5035407;28;20033;-37
2024/02/24 08:52:52;;;;;;;9.02;5.18;;;6.40;99.90;;;;;;5035005;28;20021;-37
2024/02/24 08:55:18;;;;;;;8.52;4.70;;;6.50;99.90;;;;;;5037208;28;20116;-36
2024/02/24 08:57:43;;;;;;;10.38;4.63;;;6.60;99.90;;;;;;5042713;28;20502;-41
2024/02/24 09:00:09;;;;;;;11.85;5.47;;;6.70;99.90;;;;;;5035003;28;20030;-52
2024/02/24 09:02:35;;;;;;;9.77;4.80;;;6.80;99.90;;;;;;5035087;28;20526;-53
2024/02/24 09:05:01;;;;;;;10.68;5.15;;;6.90;99.90;;;;;;5034759;28;20062;-52
2024/02/24 09:07:26;;;;;;;11.45;5.25;;;6.90;99.90;;;;;;5035184;28;20498;-52
2024/02/24 09:09:52;;;;;;;8.85;5.07;;;6.90;99.90;;;;;;5035007;28;20033;-54
2024/02/24 09:12:17;;;;;;;8.32;4.82;;;7.00;99.90;;;;;;5033524;28;20048;-53
2024/02/24 09:14:43;;;;;;;19.13;6.03;;;7.00;99.90;;;;;;5035114;28;20026;-50
2024/02/24 09:17:09;;;;;;;8.98;5.50;;;7.10;99.90;;;;;;5034738;28;20030;-51
2024/02/24 09:19:34;;;;;;;7.75;4.95;;;7.20;99.90;;;;;;5035125;28;20056;-51
2024/02/24 09:22:00;;;;;;;9.88;5.10;;;7.20;99.90;;;;;;5034549;28;20033;-52
2024/02/24 09:24:26;;;;;;;20.13;6.13;;;7.30;99.90;;;;;;5035024;28;20025;-49
2024/02/24 09:26:51;;;;;;;7.60;5.30;;;7.30;99.90;;;;;;5033129;28;20046;-53
2024/02/24 09:29:17;;;;;;;7.40;4.88;;;7.20;99.90;;;;;;5034890;28;20386;-55
2024/02/24 09:31:43;;;;;;;8.07;5.07;;;7.30;99.90;;;;;;5034483;28;20465;-54
2024/02/24 09:34:08;;;;;;;15.40;5.88;;;7.30;99.90;;;;;;5034570;28;20410;-53
2024/02/24 09:36:38;;;;;;;10.50;5.95;;;7.30;99.90;;;;;;5034499;28;20100;-50
2024/02/24 09:39:04;;;;;;;11.55;5.60;;;7.20;99.90;;;;;;5034440;28;20033;-54
2024/02/24 09:41:30;;;;;;;11.52;6.28;;;7.10;99.90;;;;;;5048605;28;20036;-54
2024/02/24 09:43:55;;;;;;;11.13;6.03;;;7.00;99.90;;;;;;5054149;28;20064;-54
2024/02/24 09:46:21;;;;;;;10.80;5.85;;;7.00;99.90;;;;;;5052911;28;20037;-53
2024/02/24 09:48:48;;;;;;;10.00;5.00;;;7.00;99.90;;;;;;5054168;28;20021;-54
2024/02/24 09:51:14;;;;;;;9.63;5.68;;;7.00;99.90;;;;;;5041694;28;20062;-52
2024/02/24 09:53:40;;;;;;;8.90;5.45;;;7.00;99.90;;;;;;5034056;28;20092;-52
2024/02/24 09:56:06;;;;;;;9.40;5.63;;;7.10;99.90;;;;;;5034103;28;20030;-51
2024/02/24 09:58:33;;;;;;;11.38;5.07;;;7.00;99.90;;;;;;5034063;28;20108;-51
2024/02/24 10:00:59;;;;;;;10.67;5.50;;;7.00;99.90;;;;;;5032660;28;20032;-42
2024/02/24 10:03:26;;;;;;;7.05;4.80;;;7.00;99.90;;;;;;5033800;28;20264;-39
2024/02/24 10:05:52;;;;;;;5.93;4.35;;;7.00;99.90;;;;;;5033836;28;20470;-44
2024/02/24 10:08:18;;;;;;;6.82;4.68;;;6.90;99.90;;;;;;5050895;28;20028;-41
2024/02/24 10:10:44;;;;;;;9.50;4.50;;;6.90;99.90;;;;;;5048633;28;20025;-38
2024/02/24 10:13:10;;;;;;;8.30;4.78;;;6.90;99.90;;;;;;5033956;28;20052;-38
2024/02/24 10:15:36;;;;;;;8.32;4.47;;;6.90;99.90;;;;;;5033657;28;20036;-52
2024/02/24 10:18:02;;;;;;;10.38;5.00;;;6.90;99.90;;;;;;5048633;28;20424;-52
2024/02/24 10:20:29;;;;;;;6.88;4.13;;;7.00;99.90;;;;;;5053740;28;20461;-52
2024/02/24 10:22:56;;;;;;;7.97;4.57;;;7.10;99.90;;;;;;5053428;28;20017;-52
2024/02/24 10:25:22;;;;;;;8.68;4.28;;;7.10;99.90;;;;;;5052305;28;20490;-53
2024/02/24 10:27:47;;;;;;;6.97;4.28;;;7.10;99.90;;;;;;5049662;28;20036;-51
2024/02/24 10:30:14;;;;;;;8.18;4.68;;;7.10;99.90;;;;;;5053365;28;20024;-54
2024/02/24 10:32:41;;;;;;;8.20;4.75;;;7.10;99.90;;;;;;5053334;28;20540;-53
2024/02/24 10:35:08;;;;;;;8.30;4.30;;;7.00;99.90;;;;;;5051592;28;20060;-52
2024/02/24 10:37:34;;;;;;;6.10;4.07;;;6.90;99.90;;;;;;5051455;28;20271;-53
2024/02/24 10:40:05;;;;;;;6.13;3.80;;;6.90;99.90;;;;;;5036513;28;20032;-54
2024/02/24 10:42:31;;;;;;;7.50;4.25;;;6.90;99.90;;;;;;5033481;28;20030;-55
2024/02/24 10:44:57;;;;;;;7.47;3.65;;;6.90;99.90;;;;;;5033319;28;20466;-53
2024/02/24 10:47:24;;;;;;;8.82;4.10;;;6.90;99.90;;;;;;5033028;28;20021;-55
2024/02/24 10:49:50;;;;;;;5.15;3.15;;;7.00;99.90;;;;;;5042795;28;20036;-55
2024/02/24 10:52:18;;;;;;;5.97;3.47;;;7.10;99.90;;;;;;5052886;28;20101;-54
2024/02/24 10:54:45;;;;;;;;;;;7.10;99.90;;;;;;5041397;28;20029;-52
2024/02/24 10:57:11;;;;;;;5.72;2.70;;;7.10;99.90;;;;;;5033001;28;20448;-54
2024/02/24 10:59:37;;;;;;;4.18;3.13;;;7.20;99.90;;;;;;5033021;28;20082;-54
2024/02/24 11:02:03;;;;;;;3.38;2.22;;;7.20;99.90;;;;;;5031850;28;20428;-53
2024/02/24 11:04:34;;;;;;;6.55;2.92;;;7.30;99.90;;;;;;5032700;28;20554;-53
2024/02/24 11:07:00;;;;;;;6.00;2.65;;;7.30;99.90;;;;;;5032749;28;20390;-53
2024/02/24 11:09:37;;;;;;;3.97;2.10;;;7.30;99.90;;;;;;5033028;28;20014;-53
2024/02/24 11:12:04;;;;;;;3.25;2.47;;;7.30;99.90;;;;;;5032893;28;20037;-54
2024/02/24 11:14:31;;;;;;;4.10;2.05;;;7.40;99.90;;;;;;5032786;28;20509;-59
2024/02/24 11:17:00;;;;;;;3.72;2.00;;;7.50;99.90;;;;;;5037437;28;20037;-54
2024/02/24 11:19:43;;;;;;;5.60;2.20;;;7.50;99.90;;;;;;5052621;28;20036;-55
2024/02/24 11:22:12;;;;;;;9.98;2.45;;;7.60;99.90;;;;;;5052394;28;20028;-54
2024/02/24 11:24:38;;;;;;;2.65;1.60;;;7.70;99.90;;;;;;5052028;28;20547;-52
2024/02/24 11:27:05;;;;;;;6.22;1.50;;;7.70;99.90;;;;;;5052382;28;20098;-53
2024/02/24 11:29:35;;;;;;;5.68;1.60;;;7.80;99.90;;;;;;5049265;28;20037;-54
2024/02/24 11:32:11;;;;;;;4.25;1.45;;;7.80;99.90;;;;;;5032636;28;20026;-53
2024/02/24 11:34:37;;;;;;;3.63;1.25;;;7.80;99.90;;;;;;5032625;28;20025;-54
2024/02/24 11:37:04;;;;;;;1.20;1.10;;;7.70;99.90;;;;;;5032329;28;20101;-54
2024/02/24 11:39:29;;;;;;;2.90;1.23;;;7.60;99.90;;;;;;5033088;28;20033;-54
2024/02/24 11:41:57;;;;;;;2.50;1.85;;;7.50;99.90;;;;;;5036503;28;20512;-53
2024/02/24 11:44:22;;;;;;;2.92;1.52;;;7.30;99.90;;;;;;5041364;28;20484;-53
2024/02/24 11:46:48;;;;;;;8.00;1.88;;;7.20;99.90;;;;;;5052290;28;20032;-54
2024/02/24 11:49:15;;;;;;;2.40;1.38;;;7.20;99.90;;;;;;5042339;28;20029;-54
2024/02/24 11:51:42;;;;;;;3.83;1.85;;;7.10;99.90;;;;;;5052328;28;20025;-53
2024/02/24 11:54:08;;;;;;;2.72;1.75;;;7.10;99.90;;;;;;5034061;28;20033;-54
2024/02/24 11:56:37;;;;;;;5.13;1.40;;;7.10;99.90;;;;;;5031061;28;20025;-53
2024/02/24 11:59:02;;;;;;;;;;;7.00;99.90;;;;;;5033089;28;20043;-53
2024/02/24 12:01:29;;;;;;;2.50;1.30;;;7.10;99.90;;;;;;5032152;28;19916;-54
2024/02/24 12:03:57;;;;;;;7.47;1.48;;;6.90;99.90;;;;;;5032139;28;20022;-52
2024/02/24 12:06:25;;;;;;;4.55;1.67;;;6.90;99.90;;;;;;5032320;28;20033;-53
2024/02/24 12:08:51;;;;;;;4.03;1.50;;;6.80;99.90;;;;;;5032036;28;20026;-53
2024/02/24 12:11:17;;;;;;;6.47;2.17;;;6.80;99.90;;;;;;5032227;28;20087;-51
2024/02/24 12:13:45;;;;;;;4.72;1.88;;;6.70;99.90;;;;;;5032416;28;20108;-52
2024/02/24 12:16:11;;;;;;;;;;;6.70;99.90;;;;;;5032875;28;20035;-55
2024/02/24 12:18:41;;;;;;;3.45;2.22;;;6.60;99.90;;;;;;5032332;28;20353;-53
2024/02/24 12:21:08;;;;;;;4.90;2.47;;;6.60;99.90;;;;;;5032220;28;20494;-54
2024/02/24 12:23:37;;;;;;;6.20;2.50;;;6.50;99.90;;;;;;5041327;28;20474;-53
2024/02/24 12:26:17;;;;;;;3.10;1.92;;;6.60;99.90;;;;;;5030521;28;20454;-52
2024/02/24 12:28:46;;;;;;;5.15;1.90;;;6.70;99.90;;;;;;5032313;28;20100;-53
2024/02/24 12:31:13;;;;;;;2.45;1.98;;;6.70;99.90;;;;;;5037246;28;20029;-54
2024/02/24 12:33:42;;;;;;;2.58;2.13;;;6.70;99.90;;;;;;5034699;28;20474;-54
2024/02/24 12:36:10;;;;;;;4.88;2.20;;;6.70;99.90;;;;;;5034342;28;20026;-53
2024/02/24 12:38:37;;;;;;;3.58;2.13;;;6.70;99.90;;;;;;5046436;28;20550;-58
2024/02/24 12:41:12;;;;;;;3.97;2.33;;;6.70;99.90;;;;;;5034073;28;20120;-54
2024/02/24 12:43:39;;;;;;;2.55;2.03;;;6.80;99.90;;;;;;5036592;28;20025;-54
2024/02/24 12:46:06;;;;;;;2.20;2.00;;;6.90;99.90;;;;;;5039190;28;20470;-53
2024/02/24 12:48:33;;;;;;;4.28;1.83;;;6.90;99.90;;;;;;5017366;28;20025;-38
2024/02/24 12:50:59;;;;;;;2.72;2.15;;;6.90;99.90;;;;;;5052947;28;20535;-38
2024/02/24 12:53:25;;;;;;;3.45;2.05;;;7.00;99.90;;;;;;5049314;28;20021;-38